Jupiter Spirit — A8ZC2 — position and weather

sailwx.info

Track history (hours):
 
Tides and Currents Weather Stations Pressure Air Temp Water Temp Dewpoint Dewpoint Depression Visibility Wind Speed Wind Dir Waves Ship Positions

Jupiter Spirit

Last reported at 2016-Apr-25 14:29 UTC. Time now 2016-May-05 02:53 UTC.
Position N 36°28' E 140°43'.
Warning: this ship's position is 9 days out of date.

Length 183 m; draft 8.6 m.

Type: Cargo ship. MMSI: 636015173.

Date/timePositionNaut miles runAvg speedWind from/ knotsBaromVisibWave heightAir tempDewpointWater temp
2016-Apr-25 14:29N 36°28' E 140°43'5 0.3
2016-Apr-24 23:11N 36°29' E 140°37'1 0.6
2016-Apr-24 21:33N 36°28' E 140°38'9 8.8
2016-Apr-24 20:33N 36°24' E 140°47'4 4.3
2016-Apr-24 19:33N 36°20' E 140°50'1 0.9
2016-Apr-24 18:33N 36°20' E 140°51'1 1.2
2016-Apr-24 17:33N 36°20' E 140°53'1 1.3
2016-Apr-24 16:33N 36°21' E 140°54'1 1.2
2016-Apr-24 15:30N 36°21' E 140°56'2 0.8
2016-Apr-24 13:33N 36°22' E 140°57'1 0.6
2016-Apr-24 12:32N 36°23' E 140°57'1 0.8
2016-Apr-24 11:33N 36°24' E 140°57'1 0.6
2016-Apr-24 10:33N 36°24' E 140°57'1 0.5
2016-Apr-24 09:21N 36°25' E 140°57'6 1.7
2016-Apr-24 06:05N 36°26' E 140°50'1 1.1
2016-Apr-24 05:29N 36°26' E 140°51'1 1.0
2016-Apr-24 04:16N 36°26' E 140°53'2 1.4
2016-Apr-24 02:32N 36°26' E 140°56'5 2.5
2016-Apr-24 00:31N 36°26' E 140°49'3 0.5
2016-Apr-23 19:33N 36°24' E 140°50'2 2.1
2016-Apr-23 18:25N 36°25' E 140°53'39 4.8
2016-Apr-23 10:20N 35°47' E 141°02'2211.8
2016-Apr-23 08:27N 35°26' E 140°51'1313.6
2016-Apr-23 07:28N 35°16' E 140°41'1313.2
2016-Apr-23 06:29N 35°07' E 140°30'1112.1
2016-Apr-23 05:33N 34°60' E 140°19'1010.5
2016-Apr-23 04:33N 34°55' E 140°08'1010.2
2016-Apr-23 03:33N 34°50' E 139°57'1010.3
2016-Apr-23 02:33N 34°44' E 139°46'  
2016-Apr-18 12:28N 34°59' E 139°39'1314.7
2016-Apr-18 11:33N 35°12' E 139°45'9 9.5
2016-Apr-18 10:34N 35°21' E 139°42'7 6.8
2016-Apr-18 09:31N 35°28' E 139°42'0 0.0
2016-Apr-18 08:31N 35°28' E 139°42'0 0.0
2016-Apr-18 07:31N 35°28' E 139°42'0 0.0
2016-Apr-18 06:31N 35°28' E 139°42'0 0.0
2016-Apr-18 05:31N 35°28' E 139°42'0 0.0
2016-Apr-18 04:31N 35°28' E 139°42'0 0.0
2016-Apr-18 03:31N 35°28' E 139°42'2 1.7
2016-Apr-18 02:34N 35°27' E 139°43'10 9.8
2016-Apr-18 01:34N 35°17' E 139°45'1010.4
2016-Apr-18 00:33N 35°07' E 139°47'1413.9
2016-Apr-17 23:34N 34°53' E 139°43'10 7.8
2016-Apr-17 22:14N 34°48' E 139°54'4 6.0
2016-Apr-17 21:33N 34°48' E 139°59'10 9.3
2016-Apr-17 20:30N 34°45' E 140°10'  
Track history (hours):
 
Tides and Currents Weather Stations Pressure Air Temp Water Temp Dewpoint Dewpoint Depression Visibility Wind Speed Wind Dir Waves Ship Positions

Jupiter Spirit

Last reported at 2016-Apr-25 14:29 UTC. Time now 2016-May-05 02:53 UTC.
Position N 36°28' E 140°43'.
Warning: this ship's position is 9 days out of date.

Length 183 m; draft 8.6 m.

Type: Cargo ship. MMSI: 636015173.

Date/timePositionNaut miles runAvg speedWind from/ knotsBaromVisibWave heightAir tempDewpointWater temp
2016-Apr-25 14:29N 36°28' E 140°43'5 0.3
2016-Apr-24 23:11N 36°29' E 140°37'1 0.6
2016-Apr-24 21:33N 36°28' E 140°38'9 8.8
2016-Apr-24 20:33N 36°24' E 140°47'4 4.3
2016-Apr-24 19:33N 36°20' E 140°50'1 0.9
2016-Apr-24 18:33N 36°20' E 140°51'1 1.2
2016-Apr-24 17:33N 36°20' E 140°53'1 1.3
2016-Apr-24 16:33N 36°21' E 140°54'1 1.2
2016-Apr-24 15:30N 36°21' E 140°56'2 0.8
2016-Apr-24 13:33N 36°22' E 140°57'1 0.6
2016-Apr-24 12:32N 36°23' E 140°57'1 0.8
2016-Apr-24 11:33N 36°24' E 140°57'1 0.6
2016-Apr-24 10:33N 36°24' E 140°57'1 0.5
2016-Apr-24 09:21N 36°25' E 140°57'6 1.7
2016-Apr-24 06:05N 36°26' E 140°50'1 1.1
2016-Apr-24 05:29N 36°26' E 140°51'1 1.0
2016-Apr-24 04:16N 36°26' E 140°53'2 1.4
2016-Apr-24 02:32N 36°26' E 140°56'5 2.5
2016-Apr-24 00:31N 36°26' E 140°49'3 0.5
2016-Apr-23 19:33N 36°24' E 140°50'2 2.1
2016-Apr-23 18:25N 36°25' E 140°53'39 4.8
2016-Apr-23 10:20N 35°47' E 141°02'2211.8
2016-Apr-23 08:27N 35°26' E 140°51'1313.6
2016-Apr-23 07:28N 35°16' E 140°41'1313.2
2016-Apr-23 06:29N 35°07' E 140°30'1112.1
2016-Apr-23 05:33N 34°60' E 140°19'1010.5
2016-Apr-23 04:33N 34°55' E 140°08'1010.2
2016-Apr-23 03:33N 34°50' E 139°57'1010.3
2016-Apr-23 02:33N 34°44' E 139°46'  
2016-Apr-18 12:28N 34°59' E 139°39'1314.7
2016-Apr-18 11:33N 35°12' E 139°45'9 9.5
2016-Apr-18 10:34N 35°21' E 139°42'7 6.8
2016-Apr-18 09:31N 35°28' E 139°42'0 0.0
2016-Apr-18 08:31N 35°28' E 139°42'0 0.0
2016-Apr-18 07:31N 35°28' E 139°42'0 0.0
2016-Apr-18 06:31N 35°28' E 139°42'0 0.0
2016-Apr-18 05:31N 35°28' E 139°42'0 0.0
2016-Apr-18 04:31N 35°28' E 139°42'0 0.0
2016-Apr-18 03:31N 35°28' E 139°42'2 1.7
2016-Apr-18 02:34N 35°27' E 139°43'10 9.8
2016-Apr-18 01:34N 35°17' E 139°45'1010.4
2016-Apr-18 00:33N 35°07' E 139°47'1413.9
2016-Apr-17 23:34N 34°53' E 139°43'10 7.8
2016-Apr-17 22:14N 34°48' E 139°54'4 6.0
2016-Apr-17 21:33N 34°48' E 139°59'10 9.3
2016-Apr-17 20:30N 34°45' E 140°10'  

Dump ship's entire track history